createdAt,value
2022-08-17T00:00:49.459Z,25.72
2022-08-17T00:03:30.102Z,25.75
2022-08-17T00:06:12.399Z,25.04
2022-08-17T00:08:48.708Z,24.49
2022-08-17T00:11:26.059Z,24.13
2022-08-17T00:14:01.411Z,23.81
2022-08-17T00:16:56.273Z,23.55
2022-08-17T00:19:29.128Z,23.30
2022-08-17T00:22:34.726Z,23.38
2022-08-17T00:24:54.891Z,24.61
2022-08-17T00:27:29.066Z,25.56
2022-08-17T00:30:31.386Z,25.85
2022-08-17T00:33:28.441Z,24.99
2022-08-17T00:35:58.207Z,24.42
2022-08-17T00:38:28.068Z,24.01
2022-08-17T00:41:00.007Z,23.69
2022-08-17T00:43:45.761Z,23.44
2022-08-17T00:46:40.472Z,23.17
2022-08-17T00:49:11.013Z,23.37
2022-08-17T00:51:46.760Z,24.51
2022-08-17T00:54:16.660Z,25.42
2022-08-17T00:57:07.418Z,25.69
2022-08-17T00:59:56.015Z,24.97
2022-08-17T01:02:41.713Z,24.24
2022-08-17T01:05:20.700Z,23.79
2022-08-17T01:07:51.122Z,23.44
2022-08-17T01:10:59.497Z,23.16
2022-08-17T01:13:13.110Z,23.34
2022-08-17T01:15:48.488Z,24.43
2022-08-17T01:18:16.771Z,25.29
2022-08-17T01:20:55.122Z,25.50
2022-08-17T01:23:25.861Z,24.83
2022-08-17T01:25:58.021Z,24.21
2022-08-17T01:28:52.438Z,23.74
2022-08-17T01:31:19.719Z,23.36
2022-08-17T01:33:48.068Z,23.06
2022-08-17T01:36:16.108Z,23.08
2022-08-17T01:38:44.130Z,24.03
2022-08-17T01:41:16.566Z,24.88
2022-08-17T01:43:51.787Z,25.21
2022-08-17T01:46:24.632Z,24.62
2022-08-17T01:48:52.926Z,23.99
2022-08-17T01:51:21.770Z,23.50
2022-08-17T01:53:53.008Z,23.15
2022-08-17T01:56:26.495Z,23.12
2022-08-17T01:58:54.864Z,24.10
2022-08-17T02:01:28.158Z,24.91
2022-08-17T02:04:00.560Z,25.22
2022-08-17T02:06:45.349Z,24.64
2022-08-17T02:09:23.291Z,23.93
2022-08-17T02:11:57.545Z,23.43
2022-08-17T02:14:26.000Z,23.04
2022-08-17T02:16:56.130Z,22.99
2022-08-17T02:19:24.338Z,23.94
2022-08-17T02:21:55.088Z,24.78
2022-08-17T02:25:00.815Z,25.09
2022-08-17T02:27:17.852Z,24.39
2022-08-17T02:32:40.480Z,23.23
2022-08-17T02:35:09.917Z,22.89
2022-08-17T02:37:38.276Z,22.60
2022-08-17T02:44:14.925Z,24.07
2022-08-17T02:47:02.180Z,24.59
2022-08-17T02:49:46.271Z,24.04
2022-08-17T02:52:43.335Z,23.33
2022-08-17T02:55:49.974Z,22.79
2022-08-17T02:58:35.854Z,22.77
2022-08-17T03:01:17.855Z,23.79
2022-08-17T03:04:01.706Z,24.74
2022-08-17T03:06:33.057Z,24.79
2022-08-17T03:09:09.102Z,24.05
2022-08-17T03:11:41.992Z,23.43
2022-08-17T03:14:12.319Z,22.99
2022-08-17T03:16:42.769Z,22.61
2022-08-17T03:19:13.832Z,22.53
2022-08-17T03:21:54.806Z,23.53
2022-08-17T03:24:28.964Z,24.42
2022-08-17T03:26:59.489Z,24.71
2022-08-17T03:29:29.040Z,24.11
2022-08-17T03:32:02.019Z,23.40
2022-08-17T03:34:30.772Z,22.84
2022-08-17T03:36:59.357Z,22.47
2022-08-17T03:39:28.322Z,22.48
2022-08-17T03:42:07.869Z,23.50
2022-08-17T03:44:57.900Z,24.52
2022-08-17T03:47:47.787Z,24.59
2022-08-17T03:50:37.027Z,23.85
2022-08-17T03:53:34.495Z,23.17
2022-08-17T03:56:22.974Z,22.65
2022-08-17T03:58:51.503Z,22.63
2022-08-17T04:01:19.915Z,23.65
2022-08-17T04:03:52.076Z,24.47
2022-08-17T04:06:22.988Z,24.74
2022-08-17T04:08:51.689Z,24.14
2022-08-17T04:11:41.610Z,23.49
2022-08-17T04:14:51.660Z,22.93
2022-08-17T04:17:34.823Z,22.47
2022-08-17T04:20:07.987Z,22.48
2022-08-17T04:22:36.595Z,23.45
2022-08-17T04:25:18.978Z,24.30
2022-08-17T04:27:52.050Z,24.68
2022-08-17T04:30:21.508Z,24.09
2022-08-17T04:33:04.215Z,23.43
2022-08-17T04:35:41.892Z,22.96
2022-08-17T04:38:13.990Z,22.65
2022-08-17T04:41:06.358Z,22.73
2022-08-17T04:43:37.541Z,23.95
2022-08-17T04:46:08.939Z,24.81
2022-08-17T04:49:03.587Z,25.21
2022-08-17T04:51:56.833Z,24.54
2022-08-17T04:55:21.180Z,23.82
2022-08-17T04:58:03.436Z,23.39
2022-08-17T05:00:35.026Z,23.15
2022-08-17T05:03:40.431Z,23.38
2022-08-17T05:06:29.018Z,24.65
2022-08-17T05:09:06.784Z,25.41
2022-08-17T05:12:38.059Z,24.98
2022-08-17T05:15:39.024Z,24.32
2022-08-17T05:18:13.834Z,23.90
2022-08-17T05:20:45.912Z,23.70
2022-08-17T05:23:17.981Z,23.86
2022-08-17T05:25:50.516Z,25.02
2022-08-17T05:28:24.093Z,25.98
2022-08-17T05:31:25.482Z,26.34
2022-08-17T05:33:54.206Z,25.74
2022-08-17T05:36:41.933Z,25.24
2022-08-17T05:39:16.320Z,24.86
2022-08-17T05:41:48.845Z,24.64
2022-08-17T05:44:19.353Z,24.51
2022-08-17T05:46:55.240Z,24.41
2022-08-17T05:49:28.033Z,24.32
2022-08-17T05:52:22.050Z,24.24
2022-08-17T05:55:01.175Z,24.19
2022-08-17T05:58:51.643Z,24.15
2022-08-17T06:01:27.136Z,24.13
2022-08-17T06:03:59.518Z,24.11
2022-08-17T06:11:58.818Z,24.15
2022-08-17T06:14:34.398Z,24.22
2022-08-17T06:17:10.493Z,24.28
2022-08-17T06:20:01.871Z,24.33
2022-08-17T06:22:36.586Z,24.32
2022-08-17T06:25:20.506Z,24.33
2022-08-17T06:27:58.588Z,24.38
2022-08-17T06:30:58.455Z,24.44
2022-08-17T06:33:37.290Z,24.55
2022-08-17T06:36:40.265Z,24.65
2022-08-17T06:39:19.847Z,24.78
2022-08-17T06:42:05.439Z,24.89
2022-08-17T06:44:49.789Z,25.04
2022-08-17T06:47:52.984Z,25.20
2022-08-17T06:50:41.596Z,25.36
2022-08-17T06:53:22.123Z,25.52
2022-08-17T06:56:09.079Z,25.68
2022-08-17T06:58:40.298Z,25.84
2022-08-17T07:01:18.756Z,26.00
2022-08-17T07:03:54.671Z,26.18
2022-08-17T07:06:29.921Z,26.34
2022-08-17T07:09:13.725Z,26.48
2022-08-17T07:11:56.983Z,26.63
2022-08-17T07:15:05.983Z,26.77
2022-08-17T07:17:47.448Z,26.94
2022-08-17T07:20:31.530Z,27.07
2022-08-17T07:23:30.417Z,27.20
2022-08-17T07:26:09.050Z,27.34
2022-08-17T07:28:37.428Z,27.49
2022-08-17T07:31:12.931Z,27.62
2022-08-17T07:34:00.299Z,27.74
2022-08-17T07:36:33.815Z,27.85
2022-08-17T07:39:03.682Z,27.97
2022-08-17T07:41:53.243Z,28.09
2022-08-17T07:44:26.981Z,28.26
2022-08-17T07:47:14.353Z,28.42
2022-08-17T07:49:50.566Z,28.58
2022-08-17T07:52:51.828Z,28.72
2022-08-17T07:55:31.836Z,28.92
2022-08-17T07:58:00.298Z,29.08
2022-08-17T08:00:32.606Z,29.24
2022-08-17T08:03:06.494Z,29.40
2022-08-17T08:05:49.695Z,29.57
2022-08-17T08:08:43.557Z,29.71
2022-08-17T08:11:15.481Z,29.85
2022-08-17T08:13:45.767Z,29.94
2022-08-17T08:16:27.157Z,30.05
2022-08-17T08:19:03.315Z,30.21
2022-08-17T08:22:16.650Z,30.35
2022-08-17T08:25:07.340Z,30.52
2022-08-17T08:27:54.853Z,30.67
2022-08-17T08:30:28.228Z,30.79
2022-08-17T08:33:20.904Z,30.90
2022-08-17T08:36:57.122Z,31.03
2022-08-17T08:39:19.758Z,31.12
2022-08-17T08:41:59.909Z,31.19
2022-08-17T08:45:00.140Z,31.26
2022-08-17T08:47:58.193Z,31.35
2022-08-17T08:51:15.795Z,31.48
2022-08-17T08:53:49.436Z,31.56
2022-08-17T08:57:11.573Z,31.63
2022-08-17T09:00:02.007Z,31.76
2022-08-17T09:02:35.146Z,31.84
2022-08-17T09:05:14.380Z,31.90
2022-08-17T09:07:58.871Z,31.97
2022-08-17T09:10:50.350Z,32.05
2022-08-17T09:13:38.283Z,32.14
2022-08-17T09:16:16.606Z,32.26
2022-08-17T09:19:02.550Z,32.36
2022-08-17T09:21:38.321Z,32.45
2022-08-17T09:24:25.682Z,32.55
2022-08-17T09:27:13.323Z,32.67
2022-08-17T09:29:49.241Z,32.78
2022-08-17T09:32:31.474Z,32.86
2022-08-17T09:35:09.449Z,32.91
2022-08-17T09:38:01.793Z,33.01
2022-08-17T09:41:03.048Z,33.10
2022-08-17T09:43:41.555Z,33.18
2022-08-17T09:46:19.348Z,33.24
2022-08-17T09:49:07.634Z,33.37
2022-08-17T09:51:49.510Z,33.50
2022-08-17T09:54:41.156Z,33.61
2022-08-17T09:57:31.626Z,33.73
2022-08-17T10:00:23.882Z,33.92
2022-08-17T10:03:16.551Z,34.10
2022-08-17T10:05:57.087Z,34.26
2022-08-17T10:08:52.604Z,34.41
2022-08-17T10:12:10.101Z,34.57
2022-08-17T10:14:55.125Z,34.78
2022-08-17T10:17:31.316Z,34.93
2022-08-17T10:20:14.889Z,35.04
2022-08-17T10:23:04.673Z,35.17
2022-08-17T10:25:56.047Z,35.33
2022-08-17T10:28:31.981Z,35.46
2022-08-17T10:31:33.689Z,35.54
2022-08-17T10:34:07.359Z,35.71
2022-08-17T10:37:09.517Z,35.92
2022-08-17T10:40:16.730Z,36.13
2022-08-17T10:43:07.358Z,36.31
2022-08-17T10:46:09.229Z,36.50
2022-08-17T10:49:04.414Z,36.63
2022-08-17T10:51:55.559Z,36.75
2022-08-17T10:54:49.723Z,36.81
2022-08-17T10:57:28.169Z,36.64
2022-08-17T11:00:35.647Z,36.36
2022-08-17T11:03:22.403Z,35.93
2022-08-17T11:06:29.599Z,35.58
2022-08-17T11:09:53.135Z,35.39
2022-08-17T11:12:33.674Z,35.60
2022-08-17T11:15:10.436Z,35.82
2022-08-17T11:17:51.333Z,35.92
2022-08-17T11:20:23.306Z,35.88
2022-08-17T11:23:26.174Z,36.00
2022-08-17T11:26:01.678Z,36.04
2022-08-17T11:28:36.064Z,35.82
2022-08-17T11:31:39.270Z,35.59
2022-08-17T11:34:18.891Z,35.68
2022-08-17T11:37:08.648Z,35.88
2022-08-17T11:39:49.092Z,36.07
2022-08-17T11:42:30.793Z,36.26
2022-08-17T11:45:08.033Z,36.44
2022-08-17T11:48:27.008Z,36.60
2022-08-17T11:51:47.204Z,36.85
2022-08-17T11:54:34.579Z,37.07
2022-08-17T11:57:41.858Z,37.20
2022-08-17T12:01:00.148Z,37.32
2022-08-17T12:03:33.502Z,37.26
2022-08-17T12:06:31.106Z,37.20
2022-08-17T12:09:24.772Z,37.29
2022-08-17T12:12:12.781Z,37.33
2022-08-17T12:15:09.582Z,37.45
2022-08-17T12:17:50.260Z,37.57
2022-08-17T12:20:28.434Z,37.72
2022-08-17T12:23:32.298Z,37.84
2022-08-17T12:26:01.598Z,37.90
2022-08-17T12:28:38.217Z,38.03
2022-08-17T12:31:26.402Z,38.14
2022-08-17T12:33:56.797Z,38.26
2022-08-17T12:36:28.267Z,38.34
2022-08-17T12:39:14.139Z,38.38
2022-08-17T12:41:47.145Z,38.41
2022-08-17T12:44:24.820Z,38.51
2022-08-17T12:50:28.684Z,38.87
2022-08-17T12:53:01.929Z,38.95
2022-08-17T12:55:37.632Z,39.03
2022-08-17T12:58:15.370Z,39.07
2022-08-17T13:00:50.047Z,38.94
2022-08-17T13:03:23.044Z,38.88
2022-08-17T13:05:58.085Z,38.96
2022-08-17T13:09:40.760Z,39.08
2022-08-17T13:15:36.160Z,39.19
2022-08-17T13:18:52.511Z,39.29
2022-08-17T13:21:31.138Z,39.41
2022-08-17T13:24:08.024Z,39.42
2022-08-17T13:26:48.701Z,39.48
2022-08-17T13:29:23.358Z,39.50
2022-08-17T13:32:45.623Z,39.60
2022-08-17T13:35:39.559Z,39.84
2022-08-17T13:38:38.570Z,40.03
2022-08-17T13:41:42.697Z,40.04
2022-08-17T13:44:35.135Z,40.14
2022-08-17T13:48:14.019Z,40.31
2022-08-17T13:51:58.570Z,40.54
2022-08-17T13:54:35.206Z,40.77
2022-08-17T13:57:18.169Z,40.96
2022-08-17T13:59:53.807Z,41.16
2022-08-17T14:02:27.630Z,41.36
2022-08-17T14:04:58.685Z,41.56
2022-08-17T14:07:32.130Z,41.76
2022-08-17T14:10:16.709Z,41.90
2022-08-17T14:12:46.682Z,42.10
2022-08-17T14:15:20.804Z,42.33
2022-08-17T14:17:57.097Z,42.53
2022-08-17T14:20:26.699Z,42.68
2022-08-17T14:22:56.130Z,42.92
2022-08-17T14:25:32.477Z,43.24
2022-08-17T14:28:10.198Z,43.57
2022-08-17T14:30:44.075Z,43.84
2022-08-17T14:33:14.598Z,44.11
2022-08-17T14:35:49.329Z,44.34
2022-08-17T14:38:19.570Z,44.53
2022-08-17T14:40:56.281Z,44.79
2022-08-17T14:43:44.739Z,45.10
2022-08-17T14:46:15.933Z,45.51
2022-08-17T14:48:55.156Z,45.92
2022-08-17T14:51:30.971Z,46.26
2022-08-17T14:54:00.665Z,46.53
2022-08-17T14:56:31.694Z,46.59
2022-08-17T14:59:10.047Z,46.70
2022-08-17T15:01:44.143Z,46.96
2022-08-17T15:04:21.463Z,47.36
2022-08-17T15:06:51.625Z,47.76
2022-08-17T15:09:26.033Z,48.07
2022-08-17T15:11:57.338Z,48.52
2022-08-17T15:14:26.651Z,48.99
2022-08-17T15:16:55.104Z,49.37
2022-08-17T15:19:26.142Z,49.58
2022-08-17T15:21:54.460Z,49.55
2022-08-17T15:24:22.620Z,49.63
2022-08-17T15:26:52.690Z,49.67
2022-08-17T15:29:23.270Z,49.72
2022-08-17T15:31:52.267Z,49.68
2022-08-17T15:34:22.559Z,49.70
2022-08-17T15:36:50.751Z,49.82
2022-08-17T15:39:19.562Z,50.04
2022-08-17T15:41:58.437Z,50.31
2022-08-17T15:44:32.537Z,50.49
2022-08-17T15:47:03.622Z,50.69
2022-08-17T15:49:31.802Z,50.95
2022-08-17T15:52:00.040Z,51.16
2022-08-17T15:54:36.085Z,51.37
2022-08-17T15:57:05.711Z,51.52
2022-08-17T15:59:35.139Z,51.61
2022-08-17T16:03:01.187Z,51.79
2022-08-17T16:05:10.691Z,51.98
2022-08-17T16:07:39.317Z,51.87
2022-08-17T16:10:08.595Z,51.33
2022-08-17T16:12:47.907Z,50.42
2022-08-17T16:15:16.749Z,49.17
2022-08-17T16:17:45.125Z,48.01
2022-08-17T16:20:20.610Z,47.01
2022-08-17T16:22:50.548Z,46.91
2022-08-17T16:25:38.378Z,47.41
2022-08-17T16:28:22.406Z,47.63
2022-08-17T16:30:58.894Z,47.21
2022-08-17T16:33:28.410Z,46.40
2022-08-17T16:35:58.310Z,45.52
2022-08-17T16:38:27.223Z,44.56
2022-08-17T16:40:56.582Z,43.94
2022-08-17T16:43:25.719Z,43.53
2022-08-17T16:45:55.013Z,43.20
2022-08-17T16:48:29.036Z,43.53
2022-08-17T16:51:03.404Z,44.40
2022-08-17T16:53:33.607Z,44.58
2022-08-17T16:56:02.021Z,44.25
2022-08-17T16:58:31.131Z,44.08
2022-08-17T17:00:59.920Z,43.71
2022-08-17T17:03:30.043Z,43.24
2022-08-17T17:06:10.180Z,42.83
2022-08-17T17:09:00.882Z,42.31
2022-08-17T17:11:41.792Z,41.79
2022-08-17T17:14:15.548Z,41.39
2022-08-17T17:16:52.561Z,40.99
2022-08-17T17:19:40.603Z,40.43
2022-08-17T17:22:16.409Z,39.69
2022-08-17T17:24:53.959Z,39.02
2022-08-17T17:27:29.572Z,38.33
2022-08-17T17:30:09.952Z,37.67
2022-08-17T17:33:07.770Z,37.03
2022-08-17T17:35:50.838Z,36.38
2022-08-17T17:38:23.633Z,35.83
2022-08-17T17:41:04.514Z,35.34
2022-08-17T17:43:39.836Z,34.87
2022-08-17T17:46:30.616Z,34.40
2022-08-17T17:49:06.087Z,33.95
2022-08-17T17:51:54.808Z,33.57
2022-08-17T17:54:43.049Z,33.18
2022-08-17T17:57:22.416Z,32.83
2022-08-17T18:00:00.722Z,32.49
2022-08-17T18:03:07.357Z,32.19
2022-08-17T18:05:58.369Z,31.83
2022-08-17T18:09:02.191Z,31.51
2022-08-17T18:11:53.001Z,31.19
2022-08-17T18:14:55.519Z,30.90
2022-08-17T18:17:24.539Z,30.63
2022-08-17T18:21:46.231Z,30.40
2022-08-17T18:23:17.984Z,30.15
2022-08-17T18:25:50.443Z,29.99
2022-08-17T18:28:23.671Z,29.80
2022-08-17T18:31:11.260Z,29.62
2022-08-17T18:33:42.471Z,29.45
2022-08-17T18:36:11.808Z,29.29
2022-08-17T18:38:42.227Z,29.14
2022-08-17T18:41:19.289Z,29.00
2022-08-17T18:44:19.608Z,28.83
2022-08-17T18:47:05.620Z,28.66
2022-08-17T18:49:36.578Z,28.52
2022-08-17T18:52:32.953Z,28.39
2022-08-17T18:55:56.272Z,28.23
2022-08-17T18:58:53.910Z,28.06
2022-08-17T19:02:16.096Z,27.92
2022-08-17T19:05:18.621Z,27.76
2022-08-17T19:07:50.499Z,27.63
2022-08-17T19:10:46.714Z,27.52
2022-08-17T19:13:24.069Z,27.40
2022-08-17T19:16:15.692Z,27.30
2022-08-17T19:18:50.244Z,27.19
2022-08-17T19:21:35.374Z,27.09
2022-08-17T19:24:20.201Z,27.00
2022-08-17T19:27:19.894Z,26.90
2022-08-17T19:30:11.890Z,26.80
2022-08-17T19:32:41.194Z,26.70
2022-08-17T19:35:17.994Z,26.63
2022-08-17T19:38:13.173Z,26.53
2022-08-17T19:41:41.102Z,26.44
2022-08-17T19:44:53.270Z,26.34
2022-08-17T19:47:54.839Z,26.23
2022-08-17T19:50:50.204Z,26.15
2022-08-17T19:54:04.780Z,26.03
2022-08-17T19:57:10.583Z,25.94
2022-08-17T20:00:00.077Z,25.86
2022-08-17T20:02:32.734Z,25.79
2022-08-17T20:05:06.850Z,25.73
2022-08-17T20:08:09.752Z,25.66
2022-08-17T20:11:02.634Z,25.58
2022-08-17T20:13:56.817Z,25.53
2022-08-17T20:16:26.295Z,25.48
2022-08-17T20:19:25.278Z,25.43
2022-08-17T20:22:50.391Z,25.37
2022-08-17T20:26:04.527Z,25.30
2022-08-17T20:28:35.988Z,25.23
2022-08-17T20:31:09.981Z,25.18
2022-08-17T20:33:38.378Z,25.13
2022-08-17T20:36:24.895Z,25.08
2022-08-17T20:38:59.901Z,25.02
2022-08-17T20:41:33.419Z,25.21
2022-08-17T20:44:05.275Z,26.34
2022-08-17T20:46:36.669Z,27.17
2022-08-17T20:49:28.077Z,26.94
2022-08-17T20:52:13.727Z,26.43
2022-08-17T20:54:53.579Z,26.06
2022-08-17T20:57:31.777Z,25.83
2022-08-17T21:00:14.203Z,25.67
2022-08-17T21:02:49.878Z,25.53
2022-08-17T21:05:36.099Z,25.42
2022-08-17T21:08:53.815Z,25.30
2022-08-17T21:12:02.910Z,25.20
2022-08-17T21:14:34.522Z,25.13
2022-08-17T21:17:31.176Z,25.06
2022-08-17T21:20:13.067Z,24.99
2022-08-17T21:23:05.312Z,24.93
2022-08-17T21:25:49.310Z,24.88
2022-08-17T21:29:00.929Z,24.82
2022-08-17T21:31:35.269Z,24.76
2022-08-17T21:34:15.956Z,24.73
2022-08-17T21:36:48.563Z,24.68
2022-08-17T21:39:24.025Z,24.65
2022-08-17T21:42:00.534Z,24.92
2022-08-17T21:44:38.046Z,26.14
2022-08-17T21:47:26.558Z,26.98
2022-08-17T21:50:18.808Z,26.65
2022-08-17T21:52:56.295Z,26.16
2022-08-17T21:55:31.221Z,25.85
2022-08-17T21:58:24.568Z,25.65
2022-08-17T22:01:21.366Z,25.49
2022-08-17T22:03:55.829Z,25.35
2022-08-17T22:06:34.577Z,25.26
2022-08-17T22:09:25.913Z,25.18
2022-08-17T22:12:17.118Z,25.09
2022-08-17T22:14:51.507Z,25.02
2022-08-17T22:17:30.160Z,24.97
2022-08-17T22:20:19.135Z,24.91
2022-08-17T22:23:10.292Z,24.87
2022-08-17T22:25:42.436Z,24.83
2022-08-17T22:28:12.851Z,24.81
2022-08-17T22:31:08.344Z,24.79
2022-08-17T22:33:47.957Z,24.78
2022-08-17T22:36:41.996Z,24.77
2022-08-17T22:39:11.290Z,24.76
2022-08-17T22:42:04.473Z,24.75
2022-08-17T22:44:49.129Z,24.71
2022-08-17T22:47:22.976Z,24.70
2022-08-17T22:50:00.746Z,24.70
2022-08-17T22:52:34.411Z,24.70
2022-08-17T22:55:34.287Z,24.71
2022-08-17T22:58:32.081Z,24.70
2022-08-17T23:01:34.369Z,24.71
2022-08-17T23:04:38.863Z,24.70
2022-08-17T23:07:22.567Z,24.68
2022-08-17T23:10:06.064Z,24.66
2022-08-17T23:12:39.966Z,24.65
2022-08-17T23:15:20.730Z,24.65
2022-08-17T23:17:49.368Z,24.64
2022-08-17T23:20:19.273Z,24.64
2022-08-17T23:22:51.382Z,24.64
2022-08-17T23:25:41.031Z,24.64
2022-08-17T23:28:11.361Z,24.64
2022-08-17T23:30:43.849Z,24.63
2022-08-17T23:33:34.374Z,24.63
2022-08-17T23:36:10.006Z,24.61
2022-08-17T23:38:38.803Z,24.60
2022-08-17T23:41:12.180Z,24.58
2022-08-17T23:43:49.131Z,24.56
2022-08-17T23:46:22.723Z,24.54
2022-08-17T23:48:55.104Z,24.51
2022-08-17T23:51:39.901Z,24.47
2022-08-17T23:54:21.942Z,24.43
2022-08-17T23:56:56.622Z,24.39
2022-08-17T23:59:28.760Z,24.34
